createdAt,value
2022-12-25T06:55:45.656Z,15.9
2022-12-25T07:01:16.325Z,18.6
2022-12-25T07:06:46.675Z,19.6
2022-12-25T07:12:17.192Z,20.1
2022-12-25T07:17:47.653Z,20.4
2022-12-25T07:23:18.371Z,20.5
2022-12-25T07:29:54.955Z,20.5
2022-12-25T07:35:25.470Z,20.5
2022-12-25T07:40:56.090Z,20.5
2022-12-25T07:46:25.645Z,20.5
2022-12-25T07:51:55.068Z,20.5
2022-12-25T07:57:25.557Z,20.5
2022-12-25T08:02:55.284Z,20.5
2022-12-25T08:08:25.523Z,20.5
2022-12-25T08:13:55.269Z,20.5
2022-12-25T08:19:25.757Z,20.5
2022-12-25T08:24:56.213Z,20.5
2022-12-25T08:30:27.489Z,20.6
2022-12-25T08:35:57.434Z,20.6
2022-12-25T08:41:27.316Z,20.6
2022-12-25T08:46:56.777Z,20.6
2022-12-25T08:52:27.361Z,20.6
2022-12-25T08:57:57.921Z,20.6
2022-12-25T09:03:28.510Z,20.6
2022-12-25T09:08:58.054Z,20.6
2022-12-25T09:14:28.523Z,20.6
2022-12-25T09:19:59.028Z,20.6
2022-12-25T09:25:28.518Z,20.6
2022-12-25T09:30:58.293Z,20.6
2022-12-25T09:36:28.007Z,20.6
2022-12-25T09:41:58.790Z,20.6
2022-12-25T09:47:29.214Z,20.6
2022-12-25T09:52:59.837Z,20.6
2022-12-25T09:58:30.449Z,20.6
2022-12-25T10:04:00.928Z,20.6
2022-12-25T10:09:30.539Z,20.6
2022-12-25T10:15:01.078Z,20.6
2022-12-25T10:20:30.654Z,20.6
2022-12-25T10:26:01.132Z,20.6
2022-12-25T10:31:31.984Z,20.6
2022-12-25T10:37:02.353Z,20.6
2022-12-25T10:42:31.831Z,20.6
2022-12-25T10:48:07.151Z,20.6
2022-12-25T10:53:32.783Z,20.5
2022-12-25T10:59:00.455Z,20.5
2022-12-25T11:04:31.217Z,20.5
2022-12-25T11:10:05.169Z,20.5
2022-12-25T11:15:32.157Z,20.5
2022-12-25T11:21:02.781Z,20.5
2022-12-25T11:26:33.509Z,20.5
2022-12-25T11:32:04.113Z,20.5
2022-12-25T11:37:34.634Z,20.5
2022-12-25T11:43:08.223Z,20.5
2022-12-25T11:48:35.645Z,20.5
2022-12-25T11:54:05.320Z,20.5
2022-12-25T11:59:35.804Z,20.5
2022-12-25T12:05:06.277Z,20.5
2022-12-25T12:10:36.880Z,20.5
2022-12-25T12:16:05.563Z,20.5
2022-12-25T12:21:36.352Z,20.5
2022-12-25T12:27:06.951Z,20.4
2022-12-25T12:32:37.410Z,20.4
2022-12-25T12:38:08.022Z,20.4
2022-12-25T12:43:37.679Z,20.4
2022-12-25T12:49:08.381Z,20.4
2022-12-25T12:54:38.865Z,20.4
2022-12-25T13:00:11.060Z,20.4
2022-12-25T13:05:38.930Z,20.4
2022-12-25T13:11:09.814Z,20.5
2022-12-25T13:16:39.532Z,20.4
2022-12-25T13:22:09.936Z,20.4
2022-12-25T13:27:39.415Z,20.4
2022-12-25T13:33:09.981Z,20.5
2022-12-25T13:38:39.637Z,20.4
2022-12-25T13:44:09.135Z,20.4
2022-12-25T13:49:39.637Z,20.4
2022-12-25T13:55:10.058Z,20.4
2022-12-25T14:00:40.764Z,20.4
2022-12-25T14:06:11.523Z,20.5
2022-12-25T14:11:42.350Z,20.4
2022-12-25T14:17:12.771Z,20.4
2022-12-25T14:22:43.340Z,20.5
2022-12-25T14:28:13.799Z,20.5
2022-12-25T14:33:43.414Z,20.5
2022-12-25T14:39:13.922Z,20.5
2022-12-25T14:44:44.384Z,20.5
2022-12-25T14:50:13.867Z,20.4
2022-12-25T14:55:44.381Z,20.5
2022-12-25T15:01:13.191Z,20.5
2022-12-25T15:06:41.822Z,20.4
2022-12-25T15:12:12.245Z,20.5
2022-12-25T15:17:42.705Z,20.4
2022-12-25T15:23:20.787Z,20.5
2022-12-25T15:28:43.935Z,20.4
2022-12-25T15:34:13.689Z,20.4
2022-12-25T15:39:44.136Z,20.5
2022-12-25T15:45:14.656Z,20.5
2022-12-25T15:50:44.157Z,20.4
2022-12-25T15:56:14.853Z,20.5
2022-12-25T16:01:45.565Z,20.4
2022-12-25T16:07:15.923Z,20.4
2022-12-25T16:12:46.532Z,20.5
2022-12-25T16:18:15.061Z,20.4
2022-12-25T16:23:45.495Z,20.4
2022-12-25T16:29:15.973Z,20.4
2022-12-25T16:34:46.580Z,20.4
2022-12-25T16:40:17.169Z,20.4
2022-12-25T16:45:47.644Z,20.4
2022-12-25T16:51:18.367Z,20.4
2022-12-25T16:56:48.692Z,20.4
2022-12-25T17:02:19.412Z,20.4
2022-12-25T17:07:49.826Z,20.4
2022-12-25T17:13:20.278Z,20.5
2022-12-25T17:18:50.767Z,20.5
2022-12-25T17:25:26.365Z,20.5
2022-12-25T17:30:57.168Z,20.6
2022-12-25T17:36:26.297Z,20.6
2022-12-25T17:41:56.790Z,20.6
2022-12-25T17:47:27.241Z,20.6
2022-12-25T17:52:57.820Z,20.6
2022-12-25T17:58:28.341Z,20.6
2022-12-25T18:03:58.957Z,20.6
2022-12-25T18:09:29.409Z,20.6
2022-12-25T18:14:59.944Z,20.7
2022-12-25T18:20:35.902Z,20.7
2022-12-25T18:26:01.093Z,20.8
2022-12-25T18:31:31.724Z,20.9
2022-12-25T18:37:02.206Z,20.9
2022-12-25T18:42:32.687Z,21
2022-12-25T18:48:02.170Z,21.2
2022-12-25T18:53:32.666Z,21.3
2022-12-25T18:59:03.126Z,21.4
2022-12-25T19:04:33.741Z,21.5
2022-12-25T19:10:04.261Z,21.6
2022-12-25T19:15:34.730Z,21.6
2022-12-25T19:21:05.360Z,21.7
2022-12-25T19:26:35.824Z,21.7
2022-12-25T19:32:06.440Z,21.7
2022-12-25T19:37:36.994Z,21.6
2022-12-25T19:43:07.490Z,21.6
2022-12-25T19:48:38.074Z,21.6
2022-12-25T19:54:08.567Z,21.6
2022-12-25T19:59:39.043Z,21.6
2022-12-25T20:05:09.611Z,21.6
2022-12-25T20:10:40.102Z,21.6
2022-12-25T20:16:10.659Z,21.7
2022-12-25T20:21:41.149Z,21.7
2022-12-25T20:27:11.660Z,21.7
2022-12-25T20:32:48.092Z,21.6
2022-12-25T20:38:12.779Z,21.6
2022-12-25T20:43:45.512Z,21.6
2022-12-25T20:49:13.861Z,21.6
2022-12-25T20:54:44.346Z,21.6
2022-12-25T21:00:14.836Z,21.6
2022-12-25T21:05:44.289Z,21.6
2022-12-25T21:11:14.766Z,21.6
2022-12-25T21:16:45.323Z,21.6
2022-12-25T21:22:15.831Z,21.6
2022-12-25T21:27:46.330Z,21.6
2022-12-25T21:33:17.397Z,21.6
2022-12-25T21:38:47.369Z,21.5
2022-12-25T21:44:17.921Z,21.5
2022-12-25T21:49:47.430Z,21.5
2022-12-25T21:55:17.895Z,21.5
2022-12-25T22:00:48.480Z,21.5
2022-12-25T22:06:21.684Z,21.4
2022-12-25T22:11:49.408Z,21.5
2022-12-25T22:17:20.040Z,21.5
2022-12-25T22:22:50.659Z,21.4
2022-12-25T22:28:21.129Z,21.4
2022-12-25T22:33:50.597Z,21.4
2022-12-25T22:39:21.066Z,21.4
2022-12-25T22:44:51.636Z,21.4
2022-12-25T22:50:22.154Z,21.4
2022-12-25T22:55:52.638Z,21.4
2022-12-25T23:01:22.145Z,21.4
2022-12-25T23:06:52.585Z,21.4
2022-12-25T23:12:23.082Z,21.4
2022-12-25T23:17:53.634Z,21.4
2022-12-25T23:23:24.214Z,21.4
2022-12-25T23:28:54.826Z,21.4
2022-12-25T23:34:25.283Z,21.4
2022-12-25T23:39:55.752Z,21.4
2022-12-25T23:45:26.386Z,21.4
2022-12-25T23:50:56.964Z,21.4
2022-12-25T23:56:27.451Z,21.4
